Sayabec, Canada
Current Conditions -  °F | °C
As of 3:00 PM on Friday 31 Oct 2014 (Local Time) from CYYY Reporting Station
Broken Clouds Broken Clouds  
Wind Chill: 34°   Ceiling: 8000
Heat Index: 39°   Visibility: 30mi
Dew Point: 28°   Wind: 7mph
Humidity: 65%   Direction: 270°W
Pressure: 30.09"   Gusts: NA
Location:  48.55°N, 67.68°W
Report Text: CYYY 311900Z 27006KT 30SM FEW030 BKN080 04/M02 A3009 RMK SC1AC5 SLP191
Loading
Personal Weather Stations






























Interactive Weather Map
Tropical Storm Tracking
New forecast layout! Learn more

10-Day Weather Forecast

Advertisements
Track Severe Weather on mobile